Latest Weather Observations for Middle Point

IDD60901

Issued at 4:15 pm CST Thursday 2 October 2014 (issued every 10 minutes, with the page automatically refreshed every 10 minutes)

About weather observations | Map of Darwin area stations | Latest observations for Darwin area | Other Formats
Station Details ID: 014041 Name: MIDDLE POINT Lat: -12.61 Lon: 131.30 Height: 14.1 m
Data from the previous 72 hours. | See also: Recent months at Middle Point
Date/Time
CST
Tmp

°C
App
Tmp
°C
Dew
Point
°C
Rel
Hum
%
Delta-T

°C
Wind Press
QNH
hPa
Press
MSL
hPa
Rain
since
9 am
mm
Dir
 
Spd
km/h
Gust
km/h
Spd
kts
Gust
kts
02/04:00pm 34.8 32.9 15.2 31 12.3 N 19 22 10 12 1008.3 1008.2 0.0
02/03:30pm 37.3 33.1 9.8 19 16.0 E 22 32 12 17 1008.3 1008.2 0.0
02/03:00pm 36.3 31.7 9.8 20 15.4 E 24 39 13 21 1008.6 1008.5 0.0
02/02:30pm 36.5 31.8 10.6 21 15.2 E 26 37 14 20 1008.9 1008.8 0.0
02/02:00pm 36.7 33.2 10.8 21 15.3 E 20 32 11 17 1009.4 1009.3 0.0
02/01:30pm 35.5 35.1 13.1 26 13.6 SSE 7 11 4 6 1010.1 1010.0 0.0
02/01:00pm 35.0 33.2 13.2 27 13.2 E 15 26 8 14 1010.7 1010.6 0.0
02/12:30pm 34.3 32.5 13.2 28 12.8 ESE 15 24 8 13 1011.5 1011.3 0.0
02/12:00pm 34.0 32.6 13.5 29 12.5 SSE 13 22 7 12 1012.0 1011.8 0.0
02/11:30am 33.4 31.9 15.4 34 11.2 ESE 17 24 9 13 1012.6 1012.4 0.0
02/11:00am 32.3 32.8 16.6 39 9.9 E 9 20 5 11 1013.3 1013.1 0.0
02/10:30am 31.5 33.4 18.5 46 8.4 NW 6 13 3 7 1013.8 1013.6 0.0
02/10:00am 30.8 32.6 18.8 48 7.8 S 7 15 4 8 1014.1 1013.9 0.0
02/09:30am 29.0 31.5 19.9 58 6.0 SE 6 17 3 9 1014.4 1014.2 0.0
02/09:00am 28.4 31.3 19.9 60 5.6 SW 4 9 2 5 1014.3 1014.1 0.0
02/08:30am 27.0 29.4 19.6 64 4.8 SSE 6 9 3 5 1014.2 1014.0 0.0
02/08:00am 25.9 30.1 20.9 74 3.3 CALM 0 0 0 0 1014.2 1014.0 0.0
02/07:30am 21.9 25.7 20.2 90 1.1 CALM 0 0 0 0 1013.8 1013.6 0.0
02/07:00am 18.9 21.4 17.2 90 1.0 CALM 0 0 0 0 1013.3 1013.1 0.0
02/06:30am 19.8 22.4 18.3 91 0.9 ENE 2 4 1 2 1012.9 1012.7 0.0
02/06:00am 19.6 22.0 17.9 90 1.0 ENE 2 4 1 2 1012.5 1012.3 0.0
02/05:30am 19.6 21.2 17.9 90 1.0 NE 6 7 3 4 1012.0 1011.8 0.0
02/05:00am 19.7 21.6 17.7 88 1.2 NNE 4 6 2 3 1011.5 1011.3 0.0
02/04:30am 20.1 21.9 17.5 85 1.6 N 4 4 2 2 1011.4 1011.2 0.0
02/04:00am 21.0 23.6 19.3 90 1.1 NNW 4 6 2 3 1011.4 1011.2 0.0
02/03:30am 20.4 22.8 18.7 90 1.1 NW 4 4 2 2 1011.3 1011.1 0.0
02/03:00am 19.9 21.7 18.4 91 0.9 WNW 6 7 3 4 1011.3 1011.1 0.0
02/02:30am 19.2 20.4 17.3 89 1.2 W 7 9 4 5 1011.4 1011.2 0.0
02/02:00am 19.3 20.9 16.9 86 1.5 NW 4 4 2 2 1011.9 1011.7 0.0
02/01:30am 21.0 23.6 17.6 81 2.1 CALM 0 0 0 0 1012.4 1012.2 0.0
02/01:00am 21.7 24.3 18.3 81 2.1 NW 2 4 1 2 1012.9 1012.7 0.0
02/12:30am 23.0 26.4 19.4 80 2.3 CALM 0 0 0 0 1013.3 1013.1 0.0
02/12:00am 22.8 25.6 18.8 78 2.5 WNW 2 4 1 2 1013.2 1013.0 0.0
 
Date/Time
CST
Tmp

°C
App
Tmp
°C
Dew
Point
°C
Rel
Hum
%
Delta-T

°C
Wind Press
QNH
hPa
Press
MSL
hPa
Rain
since
9 am
mm
Dir
 
Spd
km/h
Gust
km/h
Spd
kts
Gust
kts
01/11:30pm 23.1 25.1 18.8 77 2.7 NNW 6 7 3 4 1013.0 1012.8 0.0
01/11:00pm 23.8 26.0 19.5 77 2.8 N 7 9 4 5 1013.1 1012.9 0.0
01/10:30pm 22.8 24.8 18.8 78 2.5 N 6 7 3 4 1013.0 1012.8 0.0
01/10:00pm 22.4 23.5 16.7 70 3.5 N 6 6 3 3 1012.9 1012.7 0.0
01/09:30pm 23.7 26.1 17.9 70 3.6 N 2 4 1 2 1012.5 1012.3 0.0
01/09:00pm 23.6 25.7 17.3 67 3.9 N 2 2 1 1 1012.4 1012.2 0.0
01/08:30pm 24.7 26.8 17.2 63 4.7 N 2 4 1 2 1012.1 1011.9 0.0
01/08:00pm 25.5 28.1 17.4 61 5.1 CALM 0 0 0 0 1011.6 1011.4 0.0
01/07:30pm 26.3 27.8 17.6 58 5.5 N 6 7 3 4 1011.0 1010.8 0.0
01/07:00pm 27.6 28.1 17.5 54 6.4 N 11 17 6 9 1010.4 1010.3 0.0
01/06:30pm 29.1 28.1 16.6 46 7.8 N 17 20 9 11 1009.7 1009.6 0.0
01/06:00pm 30.8 28.9 15.2 38 9.6 N 19 26 10 14 1008.9 1008.8 0.0
01/05:30pm 32.5 30.9 15.1 35 10.8 N 17 24 9 13 1008.4 1008.3 0.0
01/05:00pm 33.1 31.5 15.1 33 11.2 N 17 22 9 12 1008.2 1008.1 0.0
01/04:30pm 33.4 31.2 14.9 32 11.5 N 20 26 11 14 1008.2 1008.1 0.0
01/04:00pm 33.8 31.7 14.8 32 11.7 N 19 26 10 14 1008.3 1008.2 0.0
01/03:30pm 33.4 31.2 14.9 32 11.5 N 20 28 11 15 1008.6 1008.5 0.0
01/03:00pm 34.0 31.6 15.5 33 11.6 N 22 30 12 16 1008.9 1008.8 0.0
01/02:30pm 34.5 32.3 15.9 33 11.7 N 22 33 12 18 1009.4 1009.3 0.0
01/02:00pm 36.8 35.4 13.5 24 14.3 SE 13 28 7 15 1009.8 1009.7 0.0
01/01:30pm 36.1 34.2 14.1 26 13.6 ESE 17 30 9 16 1010.6 1010.5 0.0
01/01:00pm 36.2 34.0 14.8 28 13.3 ENE 20 26 11 14 1011.3 1011.1 0.0
01/12:30pm 33.9 32.5 14.4 31 12.0 E 15 28 8 15 1012.1 1011.9 0.0
01/12:00pm 33.4 32.7 15.4 34 11.2 ESE 13 17 7 9 1013.0 1012.8 0.0
01/11:30am 32.4 30.2 14.5 33 11.0 N 19 24 10 13 1013.5 1013.3 0.0
01/11:00am 33.0 32.1 15.9 35 10.7 ENE 15 24 8 13 1014.1 1013.9 0.0
01/10:30am 32.0 31.3 15.5 37 10.2 E 13 22 7 12 1014.5 1014.3 0.0
01/10:00am 30.6 30.2 16.2 41 9.0 ENE 13 22 7 12 1014.6 1014.4 0.0
01/09:30am 29.4 31.0 18.2 51 7.2 E 7 15 4 8 1014.8 1014.6 0.0
01/09:00am 28.2 30.5 19.4 59 5.7 SE 6 15 3 8 1014.9 1014.8 0.0
01/08:30am 27.0 29.7 20.3 66 4.4 SSE 6 9 3 5 1014.6 1014.5 0.0
01/08:00am 25.5 28.4 20.7 75 3.1 S 6 9 3 5 1014.2 1014.1 0.0
01/07:30am 23.1 26.7 20.6 86 1.6 S 2 4 1 2 1013.7 1013.6 0.0
01/07:00am 20.6 23.9 19.1 91 0.9 CALM 0 0 0 0 1013.3 1013.2 0.0
01/06:30am 20.0 22.2 18.3 90 1.1 SSW 4 6 2 3 1012.8 1012.7 0.0
01/06:00am 19.4 20.7 17.0 86 1.5 SSW 6 6 3 3 1012.5 1012.4 0.0
01/05:30am 21.1 24.0 18.3 84 1.7 CALM 0 0 0 0 1012.3 1012.2 0.0
01/05:00am 22.4 24.7 19.4 83 1.9 NE 6 7 3 4 1012.0 1011.9 0.0
01/04:30am 23.5 25.1 20.0 81 2.3 ENE 11 15 6 8 1012.1 1012.0 0.0
01/04:00am 23.7 25.5 20.4 82 2.1 NE 11 15 6 8 1011.9 1011.8 0.0
01/03:30am 23.9 26.2 20.6 82 2.2 NE 9 15 5 8 1012.1 1012.0 0.0
01/03:00am 23.7 26.2 19.8 79 2.5 ENE 6 7 3 4 1012.4 1012.3 0.0
01/02:30am 24.4 28.4 20.5 79 2.5 CALM 0 0 0 0 1012.7 1012.6 0.0
01/02:00am 24.3 27.7 20.2 78 2.7 NNE 2 4 1 2 1012.9 1012.8 0.0
01/01:30am 24.8 27.8 20.9 79 2.6 NE 6 7 3 4 1013.0 1012.9 0.0
01/01:00am 24.4 28.0 20.5 79 2.5 ENE 2 4 1 2 1013.0 1012.9 0.0
01/12:30am 24.2 27.1 20.7 81 2.3 NE 6 6 3 3 1013.1 1013.0 0.0
01/12:00am 22.5 25.4 19.1 81 2.2 NE 2 2 1 1 1013.3 1013.2 0.0
 
Date/Time
CST
Tmp

°C
App
Tmp
°C
Dew
Point
°C
Rel
Hum
%
Delta-T

°C
Wind Press
QNH
hPa
Press
MSL
hPa
Rain
since
9 am
mm
Dir
 
Spd
km/h
Gust
km/h
Spd
kts
Gust
kts
30/11:30pm 23.0 26.0 19.2 79 2.4 NE 2 2 1 1 1013.4 1013.3 0.0
30/11:00pm 24.2 27.6 19.3 74 3.1 CALM 0 0 0 0 1013.4 1013.3 0.0
30/10:30pm 24.5 26.9 19.6 74 3.2 NNE 6 7 3 4 1013.2 1013.1 0.0
30/10:00pm 25.1 28.3 19.7 72 3.5 NNE 2 4 1 2 1013.2 1013.1 0.0
30/09:30pm 25.1 27.9 19.7 72 3.5 NW 4 6 2 3 1012.8 1012.7 0.0
30/09:00pm 25.4 27.7 19.8 71 3.6 WNW 7 9 4 5 1012.6 1012.5 0.0
30/08:30pm 25.9 27.6 19.3 67 4.2 WNW 9 17 5 9 1012.1 1012.0 0.0
30/08:00pm 26.9 28.4 19.8 65 4.6 N 11 17 6 9 1011.3 1011.2 0.0
30/07:30pm 27.3 28.3 18.6 59 5.6 NNE 11 15 6 8 1010.9 1010.8 0.0
30/07:00pm 28.2 28.2 18.0 54 6.5 N 15 20 8 11 1010.2 1010.2 0.0
30/06:30pm 29.2 28.9 17.4 49 7.5 N 15 20 8 11 1009.8 1009.7 0.0
30/06:00pm 31.0 30.2 17.0 43 8.9 N 17 24 9 13 1009.3 1009.2 0.0
30/05:30pm 31.9 30.5 17.0 41 9.5 N 20 26 11 14 1008.9 1008.8 0.0
30/05:00pm 32.6 31.5 17.2 39 9.8 N 19 26 10 14 1008.9 1008.8 0.0
30/04:30pm 32.2 30.4 16.1 38 10.1 N 20 28 11 15 1008.9 1008.8 0.0
30/04:00pm 33.6 32.1 17.7 38 10.2 N 22 33 12 18 1009.1 1009.0 0.0
30/03:30pm 33.5 31.3 16.8 36 10.6 N 24 32 13 17 1009.4 1009.3 0.0
30/03:00pm 32.9 31.5 17.9 41 9.7 N 22 39 12 21 1009.7 1009.6 0.0
30/02:30pm 32.7 33.0 16.9 38 10.0 NNE 11 19 6 10 1010.1 1010.1 0.0
30/02:00pm 33.2 33.1 17.8 40 9.9 N 15 24 8 13 1010.4 1010.4 0.0
30/01:30pm 31.7 30.5 17.6 43 9.0 N 20 28 11 15 1011.1 1011.0 0.0
30/01:00pm 31.6 30.6 17.9 44 8.8 N 20 30 11 16 1011.7 1011.6 0.0
30/12:30pm 33.3 32.8 17.9 40 9.9 N 17 30 9 16 1012.1 1012.0 0.0
30/12:00pm 33.4 31.5 15.8 34 11.0 N 20 30 11 16 1012.7 1012.6 0.0
30/11:30am 33.8 32.4 16.6 35 10.9 NE 19 33 10 18 1013.3 1013.2 0.0
30/11:00am 32.2 32.0 15.7 37 10.3 ENE 11 20 6 11 1013.7 1013.6 0.0
30/10:30am 30.2 30.8 17.6 46 8.0 NNE 11 20 6 11 1014.2 1014.1 0.0
30/10:00am 30.9 32.3 18.6 48 8.0 NE 9 15 5 8 1014.4 1014.3 0.0
30/09:30am 29.6 31.5 19.0 53 6.9 NE 7 19 4 10 1014.6 1014.5 0.0
30/09:00am 29.1 31.1 17.9 50 7.1 SE 4 7 2 4 1014.8 1014.7 0.0
30/08:30am 28.3 31.2 20.6 63 5.1 E 6 9 3 5 1014.8 1014.7 0.0
30/08:00am 26.4 29.2 20.5 70 3.9 E 6 9 3 5 1014.5 1014.4 0.0
30/07:30am 24.1 28.2 20.8 82 2.2 CALM 0 0 0 0 1014.3 1014.2 0.0
30/07:00am 20.3 23.3 18.4 89 1.2 CALM 0 0 0 0 1014.0 1013.9 0.0
30/06:30am 19.3 21.7 16.9 86 1.5 CALM 0 0 0 0 1013.7 1013.6 0.0
30/06:00am 19.8 22.2 17.0 84 1.7 CALM 0 0 0 0 1013.6 1013.5 0.0
30/05:30am 20.3 23.1 17.9 86 1.5 CALM 0 0 0 0 1013.3 1013.2 0.0
30/05:00am 20.6 23.0 18.0 85 1.6 NE 2 2 1 1 1012.9 1012.8 0.0
30/04:30am 20.1 22.3 16.5 80 2.2 CALM 0 2 0 1 1012.8 1012.7 0.0
30/04:00am 21.5 23.5 18.7 84 1.8 ENE 6 7 3 4 1012.8 1012.7 0.0
30/03:30am 20.3 21.9 16.9 81 2.1 N 4 6 2 3 1012.5 1012.4 0.0
30/03:00am 20.9 22.4 17.5 81 2.1 ENE 6 7 3 4 1012.4 1012.3 0.0
30/02:30am 20.6 22.5 16.8 79 2.3 N 2 6 1 3 1012.2 1012.1 0.0
30/02:00am 21.3 23.7 17.1 77 2.6 CALM 0 0 0 0 1012.2 1012.1 0.0
30/01:30am 21.1 23.3 16.5 75 2.8 CALM 0 0 0 0 1012.4 1012.3 0.0
30/01:00am 22.3 24.0 17.2 73 3.1 WNW 4 4 2 2 1012.6 1012.5 0.0
30/12:30am 21.8 23.1 17.0 74 2.9 WNW 6 6 3 3 1012.6 1012.5 0.0
30/12:00am 21.0 22.1 16.6 76 2.7 WNW 6 7 3 4 1012.7 1012.6 0.0
 
Date/Time
CST
Tmp

°C
App
Tmp
°C
Dew
Point
°C
Rel
Hum
%
Delta-T

°C
Wind Press
QNH
hPa
Press
MSL
hPa
Rain
since
9 am
mm
Dir
 
Spd
km/h
Gust
km/h
Spd
kts
Gust
kts
29/11:30pm 21.4 22.8 16.4 73 3.0 N 4 4 2 2 1012.7 1012.6 0.0
29/11:00pm 21.5 23.1 16.0 71 3.3 N 2 4 1 2 1012.6 1012.5 0.0
29/10:30pm 22.9 23.8 16.0 65 4.2 N 6 6 3 3 1012.6 1012.5 0.0
29/10:00pm 22.8 24.0 15.9 65 4.2 NNW 4 6 2 3 1012.5 1012.4 0.0
29/09:30pm 22.4 23.1 16.2 68 3.8 NW 7 9 4 5 1012.1 1012.0 0.0
29/09:00pm 23.8 24.7 16.1 62 4.7 NW 6 6 3 3 1011.7 1011.6 0.0
29/08:30pm 24.4 24.8 14.8 55 5.7 WNW 6 7 3 4 1011.4 1011.3 0.0
29/08:00pm 25.9 27.6 16.2 55 6.0 WNW 2 4 1 2 1010.9 1010.8 0.0
29/07:30pm 26.3 26.4 15.4 51 6.6 N 9 11 5 6 1010.2 1010.2 0.0
29/07:00pm 28.7 27.6 15.2 43 8.2 N 15 19 8 10 1009.7 1009.6 0.0
29/06:30pm 29.9 28.8 15.2 41 9.0 N 15 20 8 11 1009.3 1009.2 0.0
29/06:00pm 31.3 29.7 14.0 35 10.5 N 15 20 8 11 1009.0 1008.9 0.0
29/05:30pm 32.9 31.3 14.0 32 11.5 N 15 20 8 11 1008.8 1008.7 0.0
29/05:00pm 33.5 31.9 14.0 30 11.9 N 15 22 8 12 1008.6 1008.5 0.0
29/04:30pm 33.5 31.4 13.5 29 12.1 NNW 17 22 9 12 1008.7 1008.6 0.0

Latest Capital City Observations: Canberra | Sydney | Melbourne | Brisbane | Adelaide | Perth | Hobart | Darwin

Other Formats:

Comma delimited format used in spreadsheet applications
http://www.bom.gov.au/fwo/IDD60901/IDD60901.95121.axf

JavaScript Object Notation format (JSON) in row-major order
http://www.bom.gov.au/fwo/IDD60901/IDD60901.95121.json